Startpagina
METAR-TAF:

METAR-TAF

Vliegvelden :

Luchthaven Molde Årø

Molde, Noorwegen

breedte: 62-45N, lengte: 007-16E, hoogte: 0 m

Actueel weer

Dit bericht is 27 minuten geleden gemaakt, om 02:20 UTC
Wind 19 kt uit het westzuidwesten
Temperatuur 3°C
Vochtigheid 87%
Druk 1004 hPa
Zicht 10 km of meer

METAR: ENML 240220Z AUTO 24019KT 9999NDV FEW022/// BKN040/// OVC110/// 03/01 Q1004

Tijdstip: 03:47 (02:47 UTC)

Verwachting

Dit bericht is 9 uur en het 47 minuten geleden gemaakt, om 17:00 UTC
Verwachting geldig van 23 om 18 UTC tot 23 om 22 UTC
Wind 18 kt uit het westen
Zicht 10 km of meer
Weinig wolken op 1000 ft
Gebroken wolken op 2000 ft
lichte regenbuien
Tijdelijke
van 23 om 18 UTC tot 23 om 22 UTC
Wind 25 kt uit het westen met uitschieters tot 35 kt
Zicht: 4000 m
Gebroken wolken op 1000 ft
Verspreide wolken op 1800 ft, Cumulonimbus.
regenbuien

TAF: ENML 231700Z 2318/2322 26018KT 9999 -SHRA FEW010 BKN020 TEMPO 2318/2322 26025G35KT 4000 SHRA BKN010 SCT018CB

Waarnemingen en weersverwachtingen van meer dan 4000 vliegvelden (METAR en TAF).

De beschikbare stations zijn de gele en rode punten op de kaart.

Ga met uw muis naar het station om de naam te zien.

Klik dan om waarnemingen en weersverwachtingen te zien.

kaart wijzigen: klik op de groene knoppen met een zwart kruis om in te zoomen, op de groene knop met een streepje om uit te zoomen of op de groene pijlen voor aangrenzende kaarten.


METAR-TAF: